Aviation Digital Data Service (ADDS)

Output produced by METARs form (2319 UTC 23 March 2019)
found at http://www.aviationweather.gov/metar/data/
 
Forecast for: RPLI (LAOAG INTL(PH-AR, PH)
Text: TAF RPLI 232300Z 2400/2424 02010KT 9999 FEW018
Forecast period: 0000 UTC 24 March 2019 to 0000 UTC 25 March 2019
Forecast type: FROM: standard forecast or significant change
Winds: from the NNE (20 degrees) at 12 MPH (10 knots; 5.1 m/s)
Visibility: 6 or more miles 10+ km)
Ceiling: at least 12,000 feet AGL
Clouds: few clouds at 1800 feet AGL
Weather: no significant weather forecast for this period
Text: TEMPO 2403/2409 04014KT FEW018 SCT290
Forecast period: 0300 to 0900 UTC 24 March 2019
Forecast type: TEMPORARY: The following changes expected for less than half the time period
Winds: from the NE (40 degrees) at 16 MPH (14 knots; 7.2 m/s)
Visibility: missing
Ceiling: at least 12,000 feet AGL
Clouds: few clouds at 1800 feet AGL
scattered clouds at 29000 feet AGL
Weather: no significant weather forecast for this period